createdAt,value
2018-06-03T00:02:15.033Z,24.34
2018-06-03T00:04:42.600Z,24.33
2018-06-03T00:07:10.161Z,24.31
2018-06-03T00:09:37.706Z,24.31
2018-06-03T00:12:05.273Z,24.31
2018-06-03T00:14:32.902Z,24.30
2018-06-03T00:17:00.495Z,24.27
2018-06-03T00:19:28.086Z,24.25
2018-06-03T00:21:55.670Z,24.25
2018-06-03T00:24:23.202Z,24.25
2018-06-03T00:26:50.785Z,24.24
2018-06-03T00:29:18.380Z,24.21
2018-06-03T00:31:45.966Z,24.18
2018-06-03T00:34:13.500Z,24.18
2018-06-03T00:36:43.991Z,24.18
2018-06-03T00:39:11.614Z,24.18
2018-06-03T00:41:39.299Z,24.17
2018-06-03T00:44:06.856Z,24.16
2018-06-03T00:46:34.417Z,24.16
2018-06-03T00:49:01.986Z,24.16
2018-06-03T00:51:29.551Z,24.15
2018-06-03T00:53:57.098Z,24.14
2018-06-03T00:56:36.330Z,24.12
2018-06-03T00:59:03.886Z,24.10
2018-06-03T01:01:31.433Z,24.09
2018-06-03T01:03:58.971Z,24.08
2018-06-03T01:06:26.517Z,24.01
2018-06-03T01:08:54.072Z,24.04
2018-06-03T01:11:21.600Z,24.03
2018-06-03T01:13:49.155Z,24.02
2018-06-03T01:16:16.687Z,24.00
2018-06-03T01:18:44.248Z,23.99
2018-06-03T01:21:11.790Z,23.96
2018-06-03T01:23:39.350Z,23.96
2018-06-03T01:26:06.909Z,23.94
2018-06-03T01:28:34.461Z,23.92
2018-06-03T01:31:01.986Z,23.90
2018-06-03T01:33:29.547Z,23.85
2018-06-03T01:35:57.114Z,23.80
2018-06-03T01:38:24.679Z,23.76
2018-06-03T01:40:52.226Z,23.72
2018-06-03T01:43:19.784Z,23.69
2018-06-03T01:45:47.330Z,23.64
2018-06-03T01:48:14.914Z,23.60
2018-06-03T01:50:42.481Z,23.55
2018-06-03T01:53:10.069Z,23.52
2018-06-03T01:55:37.628Z,23.47
2018-06-03T01:58:05.190Z,23.43
2018-06-03T02:00:32.725Z,23.38
2018-06-03T02:03:00.255Z,23.35
2018-06-03T02:05:27.819Z,23.29
2018-06-03T02:07:55.363Z,23.26
2018-06-03T02:10:22.939Z,23.22
2018-06-03T02:12:50.481Z,23.19
2018-06-03T02:15:18.046Z,23.15
2018-06-03T02:17:45.610Z,23.10
2018-06-03T02:20:13.157Z,23.10
2018-06-03T02:22:40.696Z,23.08
2018-06-03T02:25:08.258Z,23.08
2018-06-03T02:27:35.816Z,23.09
2018-06-03T02:30:03.380Z,23.10
2018-06-03T02:32:30.960Z,23.09
2018-06-03T02:34:58.532Z,23.07
2018-06-03T02:37:26.094Z,23.09
2018-06-03T02:39:53.630Z,23.12
2018-06-03T02:42:21.177Z,23.13
2018-06-03T02:44:48.754Z,23.15
2018-06-03T02:47:16.375Z,23.12
2018-06-03T02:49:43.961Z,23.19
2018-06-03T02:52:11.523Z,23.20
2018-06-03T02:54:39.125Z,23.18
2018-06-03T02:57:06.665Z,23.16
2018-06-03T02:59:34.240Z,23.16
2018-06-03T03:02:01.814Z,23.15
2018-06-03T03:04:29.383Z,23.14
2018-06-03T03:06:56.910Z,23.11
2018-06-03T03:09:24.451Z,23.09
2018-06-03T03:12:23.588Z,22.75
2018-06-03T03:14:52.127Z,22.77
2018-06-03T03:17:20.915Z,22.78
2018-06-03T03:19:49.538Z,22.79
2018-06-03T03:22:18.056Z,22.79
2018-06-03T03:24:46.565Z,22.78
2018-06-03T03:27:15.071Z,22.79
2018-06-03T03:29:43.594Z,22.77
2018-06-03T03:32:12.121Z,22.75
2018-06-03T03:34:40.640Z,22.73
2018-06-03T03:37:09.403Z,22.70
2018-06-03T03:39:37.934Z,22.66
2018-06-03T03:42:06.485Z,22.58
2018-06-03T03:44:34.983Z,22.52
2018-06-03T03:47:03.530Z,19.57
2018-06-03T03:49:32.027Z,22.37
2018-06-03T03:52:00.659Z,22.28
2018-06-03T03:54:29.252Z,22.22
2018-06-03T03:56:57.877Z,22.17
2018-06-03T03:59:26.448Z,22.14
2018-06-03T04:01:56.639Z,22.10
2018-06-03T04:04:25.149Z,22.10
2018-06-03T04:06:53.722Z,22.09
2018-06-03T04:09:22.255Z,22.08
2018-06-03T04:11:50.818Z,21.77
2018-06-03T04:14:19.406Z,22.05
2018-06-03T04:16:47.946Z,22.06
2018-06-03T04:19:16.439Z,22.06
2018-06-03T04:21:44.951Z,22.06
2018-06-03T04:24:13.485Z,22.09
2018-06-03T04:26:42.063Z,22.12
2018-06-03T04:29:10.573Z,22.15
2018-06-03T04:31:39.105Z,22.18
2018-06-03T04:34:07.751Z,22.20
2018-06-03T04:36:36.273Z,22.27
2018-06-03T04:39:06.100Z,22.32
2018-06-03T04:41:34.756Z,22.39
2018-06-03T04:44:03.247Z,22.44
2018-06-03T04:46:31.910Z,22.51
2018-06-03T04:49:00.573Z,22.58
2018-06-03T04:51:29.089Z,22.64
2018-06-03T04:53:57.657Z,22.71
2018-06-03T04:56:26.169Z,22.80
2018-06-03T04:58:54.762Z,22.88
2018-06-03T05:01:23.280Z,22.97
2018-06-03T05:03:51.770Z,23.04
2018-06-03T05:06:20.277Z,23.09
2018-06-03T05:08:48.864Z,23.11
2018-06-03T05:11:17.541Z,23.14
2018-06-03T05:13:46.162Z,23.17
2018-06-03T05:16:14.714Z,23.24
2018-06-03T05:18:43.257Z,23.33
2018-06-03T05:21:11.845Z,23.43
2018-06-03T05:23:40.481Z,23.53
2018-06-03T05:26:09.035Z,23.62
2018-06-03T05:28:37.603Z,23.71
2018-06-03T05:31:06.376Z,23.84
2018-06-03T05:33:34.927Z,23.98
2018-06-03T05:36:03.468Z,24.10
2018-06-03T05:38:31.951Z,24.21
2018-06-03T05:41:00.871Z,24.37
2018-06-03T05:43:29.526Z,24.53
2018-06-03T05:45:58.283Z,24.72
2018-06-03T05:48:26.953Z,24.97
2018-06-03T05:50:55.605Z,25.34
2018-06-03T05:53:24.130Z,25.68
2018-06-03T05:55:52.731Z,26.01
2018-06-03T05:58:21.390Z,26.29
2018-06-03T06:00:50.145Z,26.46
2018-06-03T06:03:18.858Z,26.61
2018-06-03T06:05:47.391Z,26.70
2018-06-03T06:08:16.018Z,26.83
2018-06-03T06:10:45.962Z,26.84
2018-06-03T06:13:14.633Z,26.88
2018-06-03T06:15:43.259Z,26.93
2018-06-03T06:18:12.015Z,26.84
2018-06-03T06:20:40.799Z,26.82
2018-06-03T06:23:09.861Z,26.79
2018-06-03T06:25:38.482Z,26.76
2018-06-03T06:28:07.151Z,26.73
2018-06-03T06:30:35.954Z,26.72
2018-06-03T06:33:04.661Z,26.74
2018-06-03T06:35:33.277Z,26.77
2018-06-03T06:38:02.006Z,26.81
2018-06-03T06:40:30.648Z,26.82
2018-06-03T06:42:59.385Z,26.88
2018-06-03T06:45:28.112Z,27.00
2018-06-03T06:47:57.494Z,27.09
2018-06-03T06:50:26.411Z,27.27
2018-06-03T06:52:55.170Z,27.49
2018-06-03T06:55:23.988Z,27.66
2018-06-03T06:57:52.675Z,26.84
2018-06-03T07:00:21.431Z,27.90
2018-06-03T07:02:50.081Z,27.98
2018-06-03T07:05:19.774Z,28.08
2018-06-03T07:07:48.470Z,28.16
2018-06-03T07:10:18.240Z,28.21
2018-06-03T07:12:46.950Z,28.36
2018-06-03T07:15:15.614Z,28.53
2018-06-03T07:17:44.281Z,28.63
2018-06-03T07:20:12.911Z,28.73
2018-06-03T07:22:41.668Z,28.81
2018-06-03T07:25:10.373Z,29.03
2018-06-03T07:27:39.061Z,29.24
2018-06-03T07:30:07.810Z,29.44
2018-06-03T07:32:36.501Z,29.99
2018-06-03T07:35:05.301Z,30.74
2018-06-03T07:37:33.854Z,31.44
2018-06-03T07:40:02.528Z,31.76
2018-06-03T07:42:31.166Z,31.93
2018-06-03T07:44:59.809Z,32.03
2018-06-03T07:47:28.563Z,32.13
2018-06-03T07:49:57.237Z,32.65
2018-06-03T07:52:25.782Z,33.37
2018-06-03T07:54:54.447Z,34.09
2018-06-03T07:57:23.166Z,34.82
2018-06-03T07:59:51.727Z,35.63
2018-06-03T08:02:20.320Z,36.33
2018-06-03T08:04:48.956Z,36.83
2018-06-03T08:07:17.891Z,36.97
2018-06-03T08:09:46.974Z,36.61
2018-06-03T08:12:16.062Z,35.95
2018-06-03T08:14:44.971Z,35.24
2018-06-03T08:17:13.984Z,34.58
2018-06-03T08:19:43.616Z,33.91
2018-06-03T08:22:13.487Z,32.52
2018-06-03T08:24:42.722Z,32.82
2018-06-03T08:27:13.467Z,32.31
2018-06-03T08:29:42.655Z,31.91
2018-06-03T08:32:11.396Z,31.62
2018-06-03T08:34:40.534Z,31.70
2018-06-03T08:37:12.695Z,31.99
2018-06-03T08:39:41.603Z,32.61
2018-06-03T08:42:10.449Z,33.56
2018-06-03T08:44:39.362Z,34.53
2018-06-03T08:47:08.173Z,35.47
2018-06-03T08:49:37.189Z,36.42
2018-06-03T08:52:05.902Z,37.36
2018-06-03T08:54:34.518Z,37.52
2018-06-03T08:57:03.283Z,37.38
2018-06-03T08:59:32.238Z,37.57
2018-06-03T09:02:00.915Z,37.72
2018-06-03T09:04:32.275Z,37.70
2018-06-03T09:07:01.681Z,37.37
2018-06-03T09:09:30.592Z,36.49
2018-06-03T09:12:01.493Z,35.72
2018-06-03T09:14:31.891Z,34.90
2018-06-03T09:17:00.521Z,34.27
2018-06-03T09:19:29.090Z,33.73
2018-06-03T09:21:57.920Z,33.15
2018-06-03T09:24:26.616Z,32.64
2018-06-03T09:26:55.171Z,32.24
2018-06-03T09:29:23.880Z,31.91
2018-06-03T09:31:52.765Z,31.57
2018-06-03T09:34:21.646Z,31.33
2018-06-03T09:36:50.867Z,30.92
2018-06-03T09:39:19.470Z,30.97
2018-06-03T09:41:48.282Z,30.75
2018-06-03T09:44:29.825Z,30.61
2018-06-03T09:46:58.558Z,30.48
2018-06-03T09:49:27.077Z,30.41
2018-06-03T09:51:56.055Z,30.35
2018-06-03T09:54:24.956Z,30.32
2018-06-03T09:56:53.509Z,30.31
2018-06-03T09:59:21.975Z,30.31
2018-06-03T10:01:50.556Z,30.32
2018-06-03T10:04:19.158Z,30.34
2018-06-03T10:06:47.748Z,30.36
2018-06-03T10:09:16.445Z,30.38
2018-06-03T10:11:45.169Z,30.42
2018-06-03T10:14:13.809Z,30.48
2018-06-03T10:16:42.427Z,30.58
2018-06-03T10:19:11.103Z,30.70
2018-06-03T10:21:39.698Z,30.83
2018-06-03T10:24:08.238Z,31.02
2018-06-03T10:26:36.830Z,31.25
2018-06-03T10:29:05.444Z,31.45
2018-06-03T10:31:34.128Z,31.65
2018-06-03T10:34:02.844Z,31.82
2018-06-03T10:36:31.418Z,31.99
2018-06-03T10:39:00.100Z,32.15
2018-06-03T10:41:28.753Z,32.29
2018-06-03T10:43:57.326Z,32.43
2018-06-03T10:46:25.901Z,32.62
2018-06-03T10:48:54.503Z,33.11
2018-06-03T10:51:23.011Z,34.24
2018-06-03T10:53:51.650Z,34.83
2018-06-03T10:56:20.232Z,35.07
2018-06-03T10:58:48.797Z,35.26
2018-06-03T11:01:17.332Z,35.47
2018-06-03T11:03:45.930Z,35.44
2018-06-03T11:06:14.511Z,35.44
2018-06-03T11:08:43.049Z,35.47
2018-06-03T11:11:11.571Z,35.59
2018-06-03T11:13:40.235Z,35.77
2018-06-03T11:16:08.795Z,35.93
2018-06-03T11:18:37.333Z,35.91
2018-06-03T11:21:05.865Z,35.88
2018-06-03T11:23:34.480Z,35.91
2018-06-03T11:26:03.075Z,36.08
2018-06-03T11:28:31.770Z,36.29
2018-06-03T11:31:00.424Z,36.30
2018-06-03T11:33:29.031Z,36.34
2018-06-03T11:35:57.724Z,36.36
2018-06-03T11:38:26.369Z,36.37
2018-06-03T11:40:55.212Z,36.36
2018-06-03T11:43:23.979Z,36.32
2018-06-03T11:45:52.666Z,36.16
2018-06-03T11:48:21.405Z,36.00
2018-06-03T11:50:50.069Z,35.85
2018-06-03T11:53:18.764Z,35.66
2018-06-03T11:55:47.513Z,35.53
2018-06-03T11:58:54.438Z,35.49
2018-06-03T12:01:23.737Z,35.32
2018-06-03T12:03:52.511Z,35.12
2018-06-03T12:06:21.187Z,34.99
2018-06-03T12:08:49.892Z,34.82
2018-06-03T12:11:18.450Z,34.56
2018-06-03T12:13:47.128Z,34.21
2018-06-03T12:16:16.162Z,33.94
2018-06-03T12:18:44.875Z,33.75
2018-06-03T12:21:13.593Z,33.55
2018-06-03T12:23:42.250Z,33.39
2018-06-03T12:26:10.964Z,33.35
2018-06-03T12:28:39.693Z,33.37
2018-06-03T12:31:08.408Z,33.45
2018-06-03T12:33:37.143Z,33.53
2018-06-03T12:36:05.872Z,33.46
2018-06-03T12:38:34.606Z,33.51
2018-06-03T12:41:03.293Z,33.71
2018-06-03T12:43:32.045Z,33.92
2018-06-03T12:46:00.804Z,34.00
2018-06-03T12:48:29.518Z,34.13
2018-06-03T12:50:58.166Z,34.09
2018-06-03T12:53:26.707Z,34.00
2018-06-03T12:55:55.253Z,34.02
2018-06-03T12:58:23.883Z,33.96
2018-06-03T13:00:52.547Z,33.99
2018-06-03T13:03:21.163Z,34.06
2018-06-03T13:05:49.755Z,34.10
2018-06-03T13:08:18.299Z,34.13
2018-06-03T13:10:46.996Z,34.26
2018-06-03T13:13:15.555Z,34.32
2018-06-03T13:15:44.272Z,34.41
2018-06-03T13:18:12.862Z,34.41
2018-06-03T13:20:41.418Z,34.48
2018-06-03T13:23:10.069Z,34.64
2018-06-03T13:25:38.743Z,34.69
2018-06-03T13:28:07.442Z,34.68
2018-06-03T13:30:36.098Z,34.47
2018-06-03T13:33:04.660Z,34.38
2018-06-03T13:35:33.249Z,34.21
2018-06-03T13:38:01.870Z,34.12
2018-06-03T13:40:30.445Z,34.06
2018-06-03T13:42:59.111Z,34.07
2018-06-03T13:45:27.733Z,33.91
2018-06-03T13:47:56.379Z,33.70
2018-06-03T13:50:25.018Z,33.51
2018-06-03T13:52:53.580Z,33.35
2018-06-03T13:55:23.735Z,33.23
2018-06-03T13:57:52.323Z,33.14
2018-06-03T14:00:20.885Z,32.94
2018-06-03T14:02:49.415Z,32.84
2018-06-03T14:05:17.928Z,32.77
2018-06-03T14:07:46.578Z,32.65
2018-06-03T14:10:15.182Z,32.51
2018-06-03T14:12:43.820Z,32.49
2018-06-03T14:15:12.439Z,32.40
2018-06-03T14:17:41.090Z,32.41
2018-06-03T14:20:09.744Z,32.48
2018-06-03T14:22:38.450Z,32.53
2018-06-03T14:25:07.001Z,32.53
2018-06-03T14:27:35.556Z,32.51
2018-06-03T14:30:04.152Z,32.46
2018-06-03T14:32:32.839Z,32.47
2018-06-03T14:35:01.521Z,32.54
2018-06-03T14:37:30.104Z,32.51
2018-06-03T14:39:58.745Z,32.43
2018-06-03T14:42:27.392Z,32.36
2018-06-03T14:44:56.085Z,32.38
2018-06-03T14:47:24.763Z,32.41
2018-06-03T14:49:53.459Z,32.46
2018-06-03T14:52:22.167Z,32.58
2018-06-03T14:54:50.970Z,32.70
2018-06-03T14:57:19.584Z,32.64
2018-06-03T14:59:48.134Z,32.56
2018-06-03T15:02:16.710Z,32.60
2018-06-03T15:04:45.416Z,32.70
2018-06-03T15:07:14.121Z,32.73
2018-06-03T15:09:42.782Z,32.72
2018-06-03T15:12:11.384Z,32.68
2018-06-03T15:14:39.943Z,32.61
2018-06-03T15:17:08.532Z,32.46
2018-06-03T15:19:37.067Z,32.33
2018-06-03T15:22:05.808Z,32.27
2018-06-03T15:24:34.604Z,32.18
2018-06-03T15:27:03.289Z,32.12
2018-06-03T15:29:31.857Z,32.07
2018-06-03T15:32:00.436Z,32.05
2018-06-03T15:34:29.051Z,32.01
2018-06-03T15:36:57.664Z,31.99
2018-06-03T15:39:27.293Z,31.96
2018-06-03T15:41:55.887Z,31.95
2018-06-03T15:44:24.841Z,31.87
2018-06-03T15:46:53.470Z,31.72
2018-06-03T15:49:22.319Z,31.57
2018-06-03T15:51:51.009Z,31.46
2018-06-03T15:54:19.703Z,31.26
2018-06-03T15:56:48.309Z,31.15
2018-06-03T15:59:17.148Z,31.11
2018-06-03T16:01:46.097Z,31.09
2018-06-03T16:04:14.840Z,31.06
2018-06-03T16:06:43.691Z,31.03
2018-06-03T16:09:12.576Z,31.08
2018-06-03T16:11:41.526Z,31.12
2018-06-03T16:14:10.302Z,31.22
2018-06-03T16:16:39.284Z,31.28
2018-06-03T16:19:08.137Z,31.29
2018-06-03T16:21:36.809Z,31.26
2018-06-03T16:24:05.661Z,31.26
2018-06-03T16:26:34.273Z,31.16
2018-06-03T16:29:02.940Z,30.47
2018-06-03T16:31:31.675Z,31.00
2018-06-03T16:34:00.338Z,30.87
2018-06-03T16:36:28.965Z,30.83
2018-06-03T16:38:57.644Z,30.82
2018-06-03T16:41:26.234Z,30.75
2018-06-03T16:43:54.841Z,30.60
2018-06-03T16:46:23.724Z,30.41
2018-06-03T16:48:52.392Z,30.29
2018-06-03T16:51:21.013Z,30.21
2018-06-03T16:53:49.815Z,30.16
2018-06-03T16:56:18.561Z,30.11
2018-06-03T16:58:47.367Z,30.04
2018-06-03T17:01:16.083Z,29.93
2018-06-03T17:03:45.063Z,29.80
2018-06-03T17:06:13.767Z,29.76
2018-06-03T17:08:42.452Z,29.63
2018-06-03T17:11:11.183Z,29.55
2018-06-03T17:13:39.939Z,29.47
2018-06-03T17:16:08.646Z,29.44
2018-06-03T17:18:37.320Z,29.44
2018-06-03T17:21:06.180Z,29.36
2018-06-03T17:23:34.824Z,29.25
2018-06-03T17:26:03.395Z,29.14
2018-06-03T17:28:32.000Z,29.12
2018-06-03T17:31:01.129Z,29.07
2018-06-03T17:33:29.771Z,29.03
2018-06-03T17:35:58.565Z,29.03
2018-06-03T17:38:27.271Z,28.99
2018-06-03T17:40:56.206Z,28.93
2018-06-03T17:43:24.950Z,28.88
2018-06-03T17:45:56.402Z,28.78
2018-06-03T17:48:25.937Z,28.73
2018-06-03T17:50:54.660Z,28.69
2018-06-03T17:53:23.797Z,28.66
2018-06-03T17:55:52.689Z,28.63
2018-06-03T17:58:21.910Z,28.59
2018-06-03T18:00:51.265Z,28.53
2018-06-03T18:03:20.177Z,28.50
2018-06-03T18:05:49.797Z,28.49
2018-06-03T18:08:19.124Z,28.47
2018-06-03T18:10:47.974Z,28.44
2018-06-03T18:13:16.748Z,28.40
2018-06-03T18:15:45.623Z,28.38
2018-06-03T18:18:14.338Z,28.32
2018-06-03T18:20:43.198Z,28.26
2018-06-03T18:23:12.140Z,28.18
2018-06-03T18:25:40.863Z,28.12
2018-06-03T18:28:10.228Z,28.08
2018-06-03T18:30:39.115Z,28.01
2018-06-03T18:33:08.190Z,27.95
2018-06-03T18:35:37.438Z,27.92
2018-06-03T18:38:06.441Z,27.87
2018-06-03T18:40:35.192Z,27.83
2018-06-03T18:43:04.095Z,27.78
2018-06-03T18:45:33.071Z,27.71
2018-06-03T18:48:01.859Z,27.64
2018-06-03T18:50:30.732Z,27.55
2018-06-03T18:52:59.356Z,27.53
2018-06-03T18:55:27.934Z,27.51
2018-06-03T18:57:56.761Z,27.48
2018-06-03T19:00:25.380Z,27.45
2018-06-03T19:02:54.219Z,27.42
2018-06-03T19:05:22.944Z,27.37
2018-06-03T19:07:51.708Z,27.30
2018-06-03T19:10:20.624Z,27.25
2018-06-03T19:12:49.667Z,27.17
2018-06-03T19:15:19.617Z,27.11
2018-06-03T19:17:48.611Z,27.07
2018-06-03T19:20:17.471Z,27.00
2018-06-03T19:22:46.320Z,26.95
2018-06-03T19:25:15.284Z,26.87
2018-06-03T19:27:44.218Z,26.79
2018-06-03T19:30:13.066Z,26.72
2018-06-03T19:32:41.990Z,26.66
2018-06-03T19:35:12.063Z,26.59
2018-06-03T19:37:41.438Z,26.54
2018-06-03T19:40:10.163Z,26.50
2018-06-03T19:42:39.261Z,26.42
2018-06-03T19:45:08.082Z,26.36
2018-06-03T19:47:37.481Z,26.29
2018-06-03T19:50:06.331Z,26.23
2018-06-03T19:52:35.410Z,26.17
2018-06-03T19:55:04.439Z,26.11
2018-06-03T19:57:33.220Z,26.05
2018-06-03T20:00:02.249Z,25.97
2018-06-03T20:02:31.106Z,25.88
2018-06-03T20:05:00.024Z,25.82
2018-06-03T20:07:28.754Z,25.76
2018-06-03T20:09:57.711Z,25.68
2018-06-03T20:12:26.516Z,25.60
2018-06-03T20:14:55.353Z,25.53
2018-06-03T20:17:24.188Z,25.48
2018-06-03T20:19:53.061Z,25.42
2018-06-03T20:22:21.837Z,25.37
2018-06-03T20:24:50.527Z,25.30
2018-06-03T20:27:19.870Z,25.23
2018-06-03T20:29:48.648Z,25.16
2018-06-03T20:32:17.593Z,25.10
2018-06-03T20:34:46.521Z,25.04
2018-06-03T20:37:15.295Z,24.99
2018-06-03T20:39:44.033Z,24.95
2018-06-03T20:42:12.817Z,24.87
2018-06-03T20:44:41.897Z,24.80
2018-06-03T20:47:16.921Z,24.77
2018-06-03T20:49:45.945Z,24.69
2018-06-03T20:52:14.768Z,24.64
2018-06-03T20:54:43.836Z,24.60
2018-06-03T20:57:12.897Z,24.53
2018-06-03T20:59:41.641Z,24.48
2018-06-03T21:02:10.437Z,24.44
2018-06-03T21:04:39.270Z,24.37
2018-06-03T21:07:07.961Z,24.34
2018-06-03T21:09:36.681Z,24.30
2018-06-03T21:12:05.709Z,24.26
2018-06-03T21:14:34.481Z,24.21
2018-06-03T21:17:03.318Z,24.17
2018-06-03T21:19:32.094Z,24.14
2018-06-03T21:22:00.815Z,24.11
2018-06-03T21:24:29.472Z,24.07
2018-06-03T21:26:58.539Z,24.03
2018-06-03T21:29:27.317Z,23.97
2018-06-03T21:31:55.997Z,23.95
2018-06-03T21:34:24.727Z,23.89
2018-06-03T21:36:54.194Z,23.83
2018-06-03T21:39:22.839Z,23.80
2018-06-03T21:41:51.508Z,23.76
2018-06-03T21:44:20.218Z,23.72
2018-06-03T21:46:48.938Z,23.68
2018-06-03T21:49:17.559Z,23.64
2018-06-03T21:51:46.170Z,23.58
2018-06-03T21:54:14.787Z,23.54
2018-06-03T21:56:43.421Z,23.49
2018-06-03T21:59:12.070Z,23.43
2018-06-03T22:01:40.725Z,23.21
2018-06-03T22:04:09.408Z,23.33
2018-06-03T22:06:38.001Z,23.30
2018-06-03T22:09:08.255Z,23.28
2018-06-03T22:11:36.916Z,23.25
2018-06-03T22:14:05.624Z,23.21
2018-06-03T22:16:34.293Z,23.16
2018-06-03T22:19:02.863Z,23.13
2018-06-03T22:21:31.553Z,22.78
2018-06-03T22:24:00.140Z,23.05
2018-06-03T22:26:28.693Z,23.01
2018-06-03T22:28:57.291Z,22.97
2018-06-03T22:31:25.831Z,22.92
2018-06-03T22:33:54.443Z,22.88
2018-06-03T22:36:23.043Z,22.84
2018-06-03T22:38:51.658Z,22.80
2018-06-03T22:41:20.340Z,22.77
2018-06-03T22:43:49.007Z,22.72
2018-06-03T22:46:17.604Z,22.70
2018-06-03T22:48:46.187Z,22.68
2018-06-03T22:51:14.768Z,22.67
2018-06-03T22:53:43.486Z,22.63
2018-06-03T22:56:12.179Z,22.61
2018-06-03T22:58:40.893Z,22.57
2018-06-03T23:01:09.528Z,22.56
2018-06-03T23:03:38.209Z,22.54
2018-06-03T23:06:06.862Z,22.53
2018-06-03T23:08:35.574Z,22.51
2018-06-03T23:11:04.155Z,22.50
2018-06-03T23:13:32.689Z,22.49
2018-06-03T23:16:01.373Z,22.45
2018-06-03T23:18:29.958Z,22.42
2018-06-03T23:20:58.588Z,22.40
2018-06-03T23:23:27.247Z,22.36
2018-06-03T23:25:55.881Z,22.32
2018-06-03T23:28:24.568Z,22.28
2018-06-03T23:30:53.250Z,22.25
2018-06-03T23:33:21.877Z,22.22
2018-06-03T23:35:50.572Z,22.18
2018-06-03T23:38:19.228Z,22.15
2018-06-03T23:40:47.887Z,22.14
2018-06-03T23:43:16.499Z,22.09
2018-06-03T23:45:45.199Z,22.06
2018-06-03T23:48:14.322Z,22.04
2018-06-03T23:50:43.021Z,22.03
2018-06-03T23:53:11.673Z,22.00
2018-06-03T23:55:40.787Z,21.97
2018-06-03T23:58:09.336Z,21.95
